sensor_id;sensor_type;location;lat;lon;timestamp;P1;durP1;ratioP1;P2;durP2;ratioP2
13683;SDS011;6914;53.552;9.908;2024-01-06T00:02:08;7.53;;;5.20;;
13683;SDS011;6914;53.552;9.908;2024-01-06T00:04:36;7.47;;;6.67;;
13683;SDS011;6914;53.552;9.908;2024-01-06T00:07:03;5.90;;;5.40;;
13683;SDS011;6914;53.552;9.908;2024-01-06T00:09:29;7.80;;;6.63;;
13683;SDS011;6914;53.552;9.908;2024-01-06T00:11:56;9.10;;;6.73;;
13683;SDS011;6914;53.552;9.908;2024-01-06T00:14:23;7.73;;;6.80;;
13683;SDS011;6914;53.552;9.908;2024-01-06T00:16:52;8.20;;;7.00;;
13683;SDS011;6914;53.552;9.908;2024-01-06T00:19:18;8.57;;;7.73;;
13683;SDS011;6914;53.552;9.908;2024-01-06T00:21:45;9.83;;;6.60;;
13683;SDS011;6914;53.552;9.908;2024-01-06T00:24:12;7.97;;;7.17;;
13683;SDS011;6914;53.552;9.908;2024-01-06T00:26:39;15.10;;;7.40;;
13683;SDS011;6914;53.552;9.908;2024-01-06T00:29:05;8.70;;;7.17;;
13683;SDS011;6914;53.552;9.908;2024-01-06T00:31:32;6.90;;;6.20;;
13683;SDS011;6914;53.552;9.908;2024-01-06T00:34:00;9.37;;;6.90;;
13683;SDS011;6914;53.552;9.908;2024-01-06T00:36:28;9.93;;;6.97;;
13683;SDS011;6914;53.552;9.908;2024-01-06T00:38:55;7.57;;;6.87;;
13683;SDS011;6914;53.552;9.908;2024-01-06T00:41:22;8.33;;;7.20;;
13683;SDS011;6914;53.552;9.908;2024-01-06T00:43:48;7.50;;;6.73;;
13683;SDS011;6914;53.552;9.908;2024-01-06T00:46:15;7.70;;;6.50;;
13683;SDS011;6914;53.552;9.908;2024-01-06T00:48:42;7.87;;;7.07;;
13683;SDS011;6914;53.552;9.908;2024-01-06T00:51:10;8.10;;;7.30;;
13683;SDS011;6914;53.552;9.908;2024-01-06T00:53:37;7.13;;;6.43;;
13683;SDS011;6914;53.552;9.908;2024-01-06T00:56:04;6.90;;;6.23;;
13683;SDS011;6914;53.552;9.908;2024-01-06T00:58:31;8.00;;;7.23;;
13683;SDS011;6914;53.552;9.908;2024-01-06T01:00:58;7.70;;;5.37;;
13683;SDS011;6914;53.552;9.908;2024-01-06T01:03:25;7.93;;;6.40;;
13683;SDS011;6914;53.552;9.908;2024-01-06T01:05:51;10.10;;;6.90;;
13683;SDS011;6914;53.552;9.908;2024-01-06T01:08:20;7.10;;;6.60;;
13683;SDS011;6914;53.552;9.908;2024-01-06T01:10:46;9.47;;;7.17;;
13683;SDS011;6914;53.552;9.908;2024-01-06T01:13:13;12.50;;;7.80;;
13683;SDS011;6914;53.552;9.908;2024-01-06T01:15:40;11.93;;;8.10;;
13683;SDS011;6914;53.552;9.908;2024-01-06T01:18:07;11.77;;;8.67;;
13683;SDS011;6914;53.552;9.908;2024-01-06T01:20:33;7.93;;;6.73;;
13683;SDS011;6914;53.552;9.908;2024-01-06T01:23:01;8.30;;;6.53;;
13683;SDS011;6914;53.552;9.908;2024-01-06T01:25:29;9.30;;;6.90;;
13683;SDS011;6914;53.552;9.908;2024-01-06T01:27:56;7.17;;;6.60;;
13683;SDS011;6914;53.552;9.908;2024-01-06T01:30:23;9.00;;;7.10;;
13683;SDS011;6914;53.552;9.908;2024-01-06T01:32:50;8.23;;;7.17;;
13683;SDS011;6914;53.552;9.908;2024-01-06T01:35:17;8.50;;;7.70;;
13683;SDS011;6914;53.552;9.908;2024-01-06T01:37:43;10.80;;;8.17;;
13683;SDS011;6914;53.552;9.908;2024-01-06T01:40:10;7.37;;;6.77;;
13683;SDS011;6914;53.552;9.908;2024-01-06T01:42:40;8.40;;;6.93;;
13683;SDS011;6914;53.552;9.908;2024-01-06T01:45:08;8.10;;;7.40;;
13683;SDS011;6914;53.552;9.908;2024-01-06T01:47:35;7.83;;;7.03;;
13683;SDS011;6914;53.552;9.908;2024-01-06T01:50:04;10.20;;;7.43;;
13683;SDS011;6914;53.552;9.908;2024-01-06T01:52:32;7.00;;;6.40;;
13683;SDS011;6914;53.552;9.908;2024-01-06T01:55:00;7.40;;;6.80;;
13683;SDS011;6914;53.552;9.908;2024-01-06T01:57:26;7.00;;;6.30;;
13683;SDS011;6914;53.552;9.908;2024-01-06T01:59:55;8.00;;;6.90;;
13683;SDS011;6914;53.552;9.908;2024-01-06T02:02:22;7.10;;;6.50;;
13683;SDS011;6914;53.552;9.908;2024-01-06T02:04:49;7.37;;;6.67;;
13683;SDS011;6914;53.552;9.908;2024-01-06T02:07:16;9.20;;;7.50;;
13683;SDS011;6914;53.552;9.908;2024-01-06T02:09:43;7.17;;;6.50;;
13683;SDS011;6914;53.552;9.908;2024-01-06T02:12:10;8.37;;;7.53;;
13683;SDS011;6914;53.552;9.908;2024-01-06T02:14:36;7.60;;;6.83;;
13683;SDS011;6914;53.552;9.908;2024-01-06T02:17:05;7.73;;;7.00;;
13683;SDS011;6914;53.552;9.908;2024-01-06T02:19:31;7.93;;;6.77;;
13683;SDS011;6914;53.552;9.908;2024-01-06T02:22:00;9.70;;;7.40;;
13683;SDS011;6914;53.552;9.908;2024-01-06T02:24:27;7.07;;;6.40;;
13683;SDS011;6914;53.552;9.908;2024-01-06T02:26:53;8.30;;;7.20;;
13683;SDS011;6914;53.552;9.908;2024-01-06T02:29:20;8.37;;;7.50;;
13683;SDS011;6914;53.552;9.908;2024-01-06T02:31:47;10.47;;;5.70;;
13683;SDS011;6914;53.552;9.908;2024-01-06T02:34:14;13.33;;;8.30;;
13683;SDS011;6914;53.552;9.908;2024-01-06T02:36:40;12.57;;;7.80;;
13683;SDS011;6914;53.552;9.908;2024-01-06T02:39:09;7.73;;;6.50;;
13683;SDS011;6914;53.552;9.908;2024-01-06T02:41:35;11.33;;;7.97;;
13683;SDS011;6914;53.552;9.908;2024-01-06T02:44:03;7.60;;;6.90;;
13683;SDS011;6914;53.552;9.908;2024-01-06T02:46:30;8.83;;;7.60;;
13683;SDS011;6914;53.552;9.908;2024-01-06T02:48:57;8.90;;;7.40;;
13683;SDS011;6914;53.552;9.908;2024-01-06T02:51:23;8.83;;;7.63;;
13683;SDS011;6914;53.552;9.908;2024-01-06T02:53:50;11.03;;;7.67;;
13683;SDS011;6914;53.552;9.908;2024-01-06T02:56:18;7.73;;;6.93;;
13683;SDS011;6914;53.552;9.908;2024-01-06T02:58:45;8.53;;;7.30;;
13683;SDS011;6914;53.552;9.908;2024-01-06T03:01:12;8.27;;;7.43;;
13683;SDS011;6914;53.552;9.908;2024-01-06T03:03:38;11.67;;;7.87;;
13683;SDS011;6914;53.552;9.908;2024-01-06T03:06:05;9.07;;;8.20;;
13683;SDS011;6914;53.552;9.908;2024-01-06T03:08:32;8.03;;;7.23;;
13683;SDS011;6914;53.552;9.908;2024-01-06T03:11:00;7.93;;;7.20;;
13683;SDS011;6914;53.552;9.908;2024-01-06T03:13:30;8.43;;;7.60;;
13683;SDS011;6914;53.552;9.908;2024-01-06T03:15:57;13.57;;;8.37;;
13683;SDS011;6914;53.552;9.908;2024-01-06T03:18:23;10.13;;;8.77;;
13683;SDS011;6914;53.552;9.908;2024-01-06T03:20:50;9.33;;;8.03;;
13683;SDS011;6914;53.552;9.908;2024-01-06T03:23:17;11.60;;;6.80;;
13683;SDS011;6914;53.552;9.908;2024-01-06T03:25:44;18.57;;;9.10;;
13683;SDS011;6914;53.552;9.908;2024-01-06T03:28:10;9.27;;;7.13;;
13683;SDS011;6914;53.552;9.908;2024-01-06T03:30:39;9.23;;;8.30;;
13683;SDS011;6914;53.552;9.908;2024-01-06T03:33:06;8.43;;;7.63;;
13683;SDS011;6914;53.552;9.908;2024-01-06T03:35:33;13.00;;;7.97;;
13683;SDS011;6914;53.552;9.908;2024-01-06T03:37:59;9.47;;;8.43;;
13683;SDS011;6914;53.552;9.908;2024-01-06T03:40:26;9.07;;;8.27;;
13683;SDS011;6914;53.552;9.908;2024-01-06T03:42:53;11.97;;;8.63;;
13683;SDS011;6914;53.552;9.908;2024-01-06T03:45:20;9.53;;;8.37;;
13683;SDS011;6914;53.552;9.908;2024-01-06T03:47:48;9.93;;;7.73;;
13683;SDS011;6914;53.552;9.908;2024-01-06T03:50:15;9.60;;;7.87;;
13683;SDS011;6914;53.552;9.908;2024-01-06T03:52:41;8.47;;;7.67;;
13683;SDS011;6914;53.552;9.908;2024-01-06T03:55:08;9.03;;;8.10;;
13683;SDS011;6914;53.552;9.908;2024-01-06T03:57:36;13.60;;;10.17;;
13683;SDS011;6914;53.552;9.908;2024-01-06T04:00:03;10.63;;;9.03;;
13683;SDS011;6914;53.552;9.908;2024-01-06T04:02:31;8.87;;;7.93;;
13683;SDS011;6914;53.552;9.908;2024-01-06T04:04:59;12.67;;;8.90;;
13683;SDS011;6914;53.552;9.908;2024-01-06T04:07:25;9.87;;;8.13;;
13683;SDS011;6914;53.552;9.908;2024-01-06T04:09:52;11.30;;;8.93;;
13683;SDS011;6914;53.552;9.908;2024-01-06T04:12:19;9.00;;;7.90;;
13683;SDS011;6914;53.552;9.908;2024-01-06T04:14:46;9.97;;;8.33;;
13683;SDS011;6914;53.552;9.908;2024-01-06T04:17:13;10.00;;;8.33;;
13683;SDS011;6914;53.552;9.908;2024-01-06T04:19:39;9.77;;;8.37;;
13683;SDS011;6914;53.552;9.908;2024-01-06T04:22:08;9.00;;;8.10;;
13683;SDS011;6914;53.552;9.908;2024-01-06T04:24:34;9.40;;;8.40;;
13683;SDS011;6914;53.552;9.908;2024-01-06T04:27:02;10.57;;;8.53;;
13683;SDS011;6914;53.552;9.908;2024-01-06T04:29:30;13.37;;;9.97;;
13683;SDS011;6914;53.552;9.908;2024-01-06T04:31:56;10.67;;;8.87;;
13683;SDS011;6914;53.552;9.908;2024-01-06T04:34:23;12.17;;;9.03;;
13683;SDS011;6914;53.552;9.908;2024-01-06T04:36:50;9.70;;;8.63;;
13683;SDS011;6914;53.552;9.908;2024-01-06T04:39:18;14.63;;;8.80;;
13683;SDS011;6914;53.552;9.908;2024-01-06T04:41:45;9.97;;;8.60;;
13683;SDS011;6914;53.552;9.908;2024-01-06T04:44:12;8.27;;;7.40;;
13683;SDS011;6914;53.552;9.908;2024-01-06T04:46:39;10.40;;;8.73;;
13683;SDS011;6914;53.552;9.908;2024-01-06T04:49:06;8.60;;;7.57;;
13683;SDS011;6914;53.552;9.908;2024-01-06T04:51:33;12.63;;;8.73;;
13683;SDS011;6914;53.552;9.908;2024-01-06T04:54:00;9.13;;;7.90;;
13683;SDS011;6914;53.552;9.908;2024-01-06T04:56:28;10.57;;;8.10;;
13683;SDS011;6914;53.552;9.908;2024-01-06T04:58:55;12.00;;;9.00;;
13683;SDS011;6914;53.552;9.908;2024-01-06T05:01:22;12.60;;;8.83;;
13683;SDS011;6914;53.552;9.908;2024-01-06T05:03:49;15.47;;;9.90;;
13683;SDS011;6914;53.552;9.908;2024-01-06T05:06:16;9.27;;;8.37;;
13683;SDS011;6914;53.552;9.908;2024-01-06T05:08:43;10.23;;;8.50;;
13683;SDS011;6914;53.552;9.908;2024-01-06T05:11:10;8.30;;;7.47;;
13683;SDS011;6914;53.552;9.908;2024-01-06T05:13:40;13.40;;;9.20;;
13683;SDS011;6914;53.552;9.908;2024-01-06T05:16:07;9.23;;;8.33;;
13683;SDS011;6914;53.552;9.908;2024-01-06T05:18:34;11.23;;;8.47;;
13683;SDS011;6914;53.552;9.908;2024-01-06T05:21:01;10.63;;;8.43;;
13683;SDS011;6914;53.552;9.908;2024-01-06T05:23:29;10.63;;;7.77;;
13683;SDS011;6914;53.552;9.908;2024-01-06T05:25:55;10.00;;;8.20;;
13683;SDS011;6914;53.552;9.908;2024-01-06T05:28:22;9.83;;;7.97;;
13683;SDS011;6914;53.552;9.908;2024-01-06T05:30:50;12.50;;;9.20;;
13683;SDS011;6914;53.552;9.908;2024-01-06T05:33:17;8.03;;;7.20;;
13683;SDS011;6914;53.552;9.908;2024-01-06T05:35:44;14.80;;;9.37;;
13683;SDS011;6914;53.552;9.908;2024-01-06T05:38:11;10.50;;;9.40;;
13683;SDS011;6914;53.552;9.908;2024-01-06T05:40:37;9.73;;;8.77;;
13683;SDS011;6914;53.552;9.908;2024-01-06T05:43:04;17.67;;;11.00;;
13683;SDS011;6914;53.552;9.908;2024-01-06T05:45:31;10.20;;;8.70;;
13683;SDS011;6914;53.552;9.908;2024-01-06T05:47:59;12.20;;;8.73;;
13683;SDS011;6914;53.552;9.908;2024-01-06T05:50:26;13.93;;;9.77;;
13683;SDS011;6914;53.552;9.908;2024-01-06T05:52:53;13.23;;;9.60;;
13683;SDS011;6914;53.552;9.908;2024-01-06T05:55:20;12.20;;;10.07;;
13683;SDS011;6914;53.552;9.908;2024-01-06T05:57:47;12.00;;;8.90;;
13683;SDS011;6914;53.552;9.908;2024-01-06T06:00:15;15.83;;;11.03;;
13683;SDS011;6914;53.552;9.908;2024-01-06T06:02:42;19.63;;;9.80;;
13683;SDS011;6914;53.552;9.908;2024-01-06T06:05:10;16.67;;;10.73;;
13683;SDS011;6914;53.552;9.908;2024-01-06T06:07:38;11.00;;;9.43;;
13683;SDS011;6914;53.552;9.908;2024-01-06T06:10:07;12.60;;;10.30;;
13683;SDS011;6914;53.552;9.908;2024-01-06T06:12:35;12.07;;;9.87;;
13683;SDS011;6914;53.552;9.908;2024-01-06T06:15:02;13.63;;;10.40;;
13683;SDS011;6914;53.552;9.908;2024-01-06T06:17:29;13.37;;;9.17;;
13683;SDS011;6914;53.552;9.908;2024-01-06T06:19:56;13.97;;;10.60;;
13683;SDS011;6914;53.552;9.908;2024-01-06T06:22:24;13.10;;;9.67;;
13683;SDS011;6914;53.552;9.908;2024-01-06T06:24:55;12.03;;;9.30;;
13683;SDS011;6914;53.552;9.908;2024-01-06T06:27:22;13.33;;;9.70;;
13683;SDS011;6914;53.552;9.908;2024-01-06T06:29:49;13.20;;;10.17;;
13683;SDS011;6914;53.552;9.908;2024-01-06T06:32:16;12.97;;;10.23;;
13683;SDS011;6914;53.552;9.908;2024-01-06T06:34:43;11.03;;;9.03;;
13683;SDS011;6914;53.552;9.908;2024-01-06T06:37:10;12.70;;;10.53;;
13683;SDS011;6914;53.552;9.908;2024-01-06T06:39:38;12.90;;;10.70;;
13683;SDS011;6914;53.552;9.908;2024-01-06T06:42:05;12.93;;;9.87;;
13683;SDS011;6914;53.552;9.908;2024-01-06T06:44:32;11.70;;;9.93;;
13683;SDS011;6914;53.552;9.908;2024-01-06T06:46:59;17.27;;;11.50;;
13683;SDS011;6914;53.552;9.908;2024-01-06T06:49:26;13.10;;;10.07;;
13683;SDS011;6914;53.552;9.908;2024-01-06T06:51:53;16.93;;;11.83;;
13683;SDS011;6914;53.552;9.908;2024-01-06T06:54:21;23.43;;;11.17;;
13683;SDS011;6914;53.552;9.908;2024-01-06T06:56:49;19.57;;;10.90;;
13683;SDS011;6914;53.552;9.908;2024-01-06T06:59:16;18.17;;;10.60;;
13683;SDS011;6914;53.552;9.908;2024-01-06T07:01:43;13.63;;;10.23;;
13683;SDS011;6914;53.552;9.908;2024-01-06T07:04:09;24.67;;;11.10;;
13683;SDS011;6914;53.552;9.908;2024-01-06T07:06:36;17.50;;;11.43;;
13683;SDS011;6914;53.552;9.908;2024-01-06T07:09:03;14.27;;;10.50;;
13683;SDS011;6914;53.552;9.908;2024-01-06T07:11:30;10.93;;;9.53;;
13683;SDS011;6914;53.552;9.908;2024-01-06T07:13:59;15.40;;;10.40;;
13683;SDS011;6914;53.552;9.908;2024-01-06T07:16:26;17.27;;;12.00;;
13683;SDS011;6914;53.552;9.908;2024-01-06T07:18:53;15.30;;;10.73;;
13683;SDS011;6914;53.552;9.908;2024-01-06T07:21:19;12.60;;;10.37;;
13683;SDS011;6914;53.552;9.908;2024-01-06T07:23:46;15.67;;;12.23;;
13683;SDS011;6914;53.552;9.908;2024-01-06T07:26:13;18.20;;;10.90;;
13683;SDS011;6914;53.552;9.908;2024-01-06T07:28:40;19.43;;;11.53;;
13683;SDS011;6914;53.552;9.908;2024-01-06T07:31:09;15.23;;;11.60;;
13683;SDS011;6914;53.552;9.908;2024-01-06T07:33:36;29.23;;;11.00;;
13683;SDS011;6914;53.552;9.908;2024-01-06T07:36:03;14.20;;;10.50;;
13683;SDS011;6914;53.552;9.908;2024-01-06T07:38:30;17.40;;;10.97;;
13683;SDS011;6914;53.552;9.908;2024-01-06T07:40:57;18.37;;;12.67;;
13683;SDS011;6914;53.552;9.908;2024-01-06T07:43:24;16.07;;;11.03;;
13683;SDS011;6914;53.552;9.908;2024-01-06T07:45:51;16.47;;;11.13;;
13683;SDS011;6914;53.552;9.908;2024-01-06T07:48:19;16.77;;;10.83;;
13683;SDS011;6914;53.552;9.908;2024-01-06T07:50:46;15.53;;;12.00;;
13683;SDS011;6914;53.552;9.908;2024-01-06T07:53:12;15.80;;;11.70;;
13683;SDS011;6914;53.552;9.908;2024-01-06T07:55:40;16.73;;;11.17;;
13683;SDS011;6914;53.552;9.908;2024-01-06T07:58:07;14.67;;;10.10;;
13683;SDS011;6914;53.552;9.908;2024-01-06T08:00:34;14.03;;;11.07;;
13683;SDS011;6914;53.552;9.908;2024-01-06T08:03:01;12.80;;;10.07;;
13683;SDS011;6914;53.552;9.908;2024-01-06T08:05:32;16.93;;;12.10;;
13683;SDS011;6914;53.552;9.908;2024-01-06T08:07:59;22.03;;;11.30;;
13683;SDS011;6914;53.552;9.908;2024-01-06T08:10:25;15.30;;;10.83;;
13683;SDS011;6914;53.552;9.908;2024-01-06T08:12:52;15.17;;;10.30;;
13683;SDS011;6914;53.552;9.908;2024-01-06T08:15:19;11.70;;;9.40;;
13683;SDS011;6914;53.552;9.908;2024-01-06T08:17:46;22.00;;;10.80;;
13683;SDS011;6914;53.552;9.908;2024-01-06T08:20:13;14.97;;;10.87;;
13683;SDS011;6914;53.552;9.908;2024-01-06T08:22:41;14.53;;;9.73;;
13683;SDS011;6914;53.552;9.908;2024-01-06T08:25:09;18.13;;;11.03;;
13683;SDS011;6914;53.552;9.908;2024-01-06T08:27:36;14.63;;;10.00;;
13683;SDS011;6914;53.552;9.908;2024-01-06T08:30:03;17.90;;;11.50;;
13683;SDS011;6914;53.552;9.908;2024-01-06T08:32:31;10.60;;;9.50;;
13683;SDS011;6914;53.552;9.908;2024-01-06T08:34:58;13.23;;;10.67;;
13683;SDS011;6914;53.552;9.908;2024-01-06T08:37:24;17.17;;;10.20;;
13683;SDS011;6914;53.552;9.908;2024-01-06T08:39:53;13.17;;;11.47;;
13683;SDS011;6914;53.552;9.908;2024-01-06T08:42:19;12.20;;;9.43;;
13683;SDS011;6914;53.552;9.908;2024-01-06T08:44:46;18.77;;;10.70;;
13683;SDS011;6914;53.552;9.908;2024-01-06T08:47:13;16.17;;;10.30;;
13683;SDS011;6914;53.552;9.908;2024-01-06T08:49:40;13.20;;;9.67;;
13683;SDS011;6914;53.552;9.908;2024-01-06T08:52:07;11.80;;;9.73;;
13683;SDS011;6914;53.552;9.908;2024-01-06T08:54:34;14.47;;;10.10;;
13683;SDS011;6914;53.552;9.908;2024-01-06T08:57:02;12.27;;;9.73;;
13683;SDS011;6914;53.552;9.908;2024-01-06T08:59:29;11.83;;;10.00;;
13683;SDS011;6914;53.552;9.908;2024-01-06T09:01:56;13.93;;;10.43;;
13683;SDS011;6914;53.552;9.908;2024-01-06T09:04:23;12.17;;;9.50;;
13683;SDS011;6914;53.552;9.908;2024-01-06T09:06:49;14.80;;;10.00;;
13683;SDS011;6914;53.552;9.908;2024-01-06T09:09:16;11.90;;;10.30;;
13683;SDS011;6914;53.552;9.908;2024-01-06T09:11:43;16.07;;;10.70;;
13683;SDS011;6914;53.552;9.908;2024-01-06T09:14:12;20.40;;;10.40;;
13683;SDS011;6914;53.552;9.908;2024-01-06T09:16:39;13.60;;;10.70;;
13683;SDS011;6914;53.552;9.908;2024-01-06T09:19:06;13.50;;;9.70;;
13683;SDS011;6914;53.552;9.908;2024-01-06T09:21:33;12.30;;;8.37;;
13683;SDS011;6914;53.552;9.908;2024-01-06T09:24:00;9.87;;;8.70;;
13683;SDS011;6914;53.552;9.908;2024-01-06T09:26:31;13.93;;;10.10;;
13683;SDS011;6914;53.552;9.908;2024-01-06T09:28:58;13.70;;;9.83;;
13683;SDS011;6914;53.552;9.908;2024-01-06T09:31:26;15.13;;;10.30;;
13683;SDS011;6914;53.552;9.908;2024-01-06T09:33:53;12.57;;;10.17;;
13683;SDS011;6914;53.552;9.908;2024-01-06T09:36:19;18.53;;;11.17;;
13683;SDS011;6914;53.552;9.908;2024-01-06T09:38:47;14.13;;;9.87;;
13683;SDS011;6914;53.552;9.908;2024-01-06T09:41:14;15.90;;;10.00;;
13683;SDS011;6914;53.552;9.908;2024-01-06T09:43:40;12.93;;;8.93;;
13683;SDS011;6914;53.552;9.908;2024-01-06T09:46:10;15.17;;;10.37;;
13683;SDS011;6914;53.552;9.908;2024-01-06T09:48:42;14.70;;;10.87;;
13683;SDS011;6914;53.552;9.908;2024-01-06T09:51:11;12.93;;;9.20;;
13683;SDS011;6914;53.552;9.908;2024-01-06T09:53:42;13.90;;;9.60;;
13683;SDS011;6914;53.552;9.908;2024-01-06T09:56:13;11.00;;;9.00;;
13683;SDS011;6914;53.552;9.908;2024-01-06T09:58:41;14.60;;;10.27;;
13683;SDS011;6914;53.552;9.908;2024-01-06T10:01:09;14.00;;;9.93;;
13683;SDS011;6914;53.552;9.908;2024-01-06T10:03:37;13.10;;;9.27;;
13683;SDS011;6914;53.552;9.908;2024-01-06T10:06:06;12.73;;;8.30;;
13683;SDS011;6914;53.552;9.908;2024-01-06T10:08:34;16.03;;;10.93;;
13683;SDS011;6914;53.552;9.908;2024-01-06T10:11:01;12.40;;;9.83;;
13683;SDS011;6914;53.552;9.908;2024-01-06T10:13:29;18.20;;;11.00;;
13683;SDS011;6914;53.552;9.908;2024-01-06T10:15:56;16.23;;;11.00;;
13683;SDS011;6914;53.552;9.908;2024-01-06T10:18:24;17.27;;;11.03;;
13683;SDS011;6914;53.552;9.908;2024-01-06T10:20:51;23.60;;;11.23;;
13683;SDS011;6914;53.552;9.908;2024-01-06T10:23:20;12.30;;;10.00;;
13683;SDS011;6914;53.552;9.908;2024-01-06T10:25:51;29.50;;;13.27;;
13683;SDS011;6914;53.552;9.908;2024-01-06T10:28:18;16.23;;;11.23;;
13683;SDS011;6914;53.552;9.908;2024-01-06T10:30:46;12.47;;;9.97;;
13683;SDS011;6914;53.552;9.908;2024-01-06T10:33:13;10.20;;;8.60;;
13683;SDS011;6914;53.552;9.908;2024-01-06T10:35:40;14.97;;;10.20;;
13683;SDS011;6914;53.552;9.908;2024-01-06T10:38:09;14.83;;;10.10;;
13683;SDS011;6914;53.552;9.908;2024-01-06T10:40:38;12.17;;;9.20;;
13683;SDS011;6914;53.552;9.908;2024-01-06T10:43:05;15.80;;;10.60;;
13683;SDS011;6914;53.552;9.908;2024-01-06T10:45:33;13.80;;;10.40;;
13683;SDS011;6914;53.552;9.908;2024-01-06T10:48:01;20.23;;;11.10;;
13683;SDS011;6914;53.552;9.908;2024-01-06T10:50:32;23.47;;;12.30;;
13683;SDS011;6914;53.552;9.908;2024-01-06T10:52:59;15.73;;;10.60;;
13683;SDS011;6914;53.552;9.908;2024-01-06T10:55:28;11.80;;;9.50;;
13683;SDS011;6914;53.552;9.908;2024-01-06T10:57:57;14.03;;;10.47;;
13683;SDS011;6914;53.552;9.908;2024-01-06T11:00:25;14.87;;;9.70;;
13683;SDS011;6914;53.552;9.908;2024-01-06T11:02:52;18.50;;;10.93;;
13683;SDS011;6914;53.552;9.908;2024-01-06T11:05:21;15.10;;;9.90;;
13683;SDS011;6914;53.552;9.908;2024-01-06T11:07:49;16.00;;;10.17;;
13683;SDS011;6914;53.552;9.908;2024-01-06T11:10:19;15.03;;;10.67;;
13683;SDS011;6914;53.552;9.908;2024-01-06T11:15:39;15.13;;;9.73;;
13683;SDS011;6914;53.552;9.908;2024-01-06T11:18:08;11.00;;;8.67;;
13683;SDS011;6914;53.552;9.908;2024-01-06T11:23:43;12.77;;;7.97;;
13683;SDS011;6914;53.552;9.908;2024-01-06T11:26:11;12.23;;;9.00;;
13683;SDS011;6914;53.552;9.908;2024-01-06T11:28:45;13.00;;;8.37;;
13683;SDS011;6914;53.552;9.908;2024-01-06T11:31:12;15.13;;;9.63;;
13683;SDS011;6914;53.552;9.908;2024-01-06T11:33:42;16.07;;;8.47;;
13683;SDS011;6914;53.552;9.908;2024-01-06T11:36:09;17.50;;;9.90;;
13683;SDS011;6914;53.552;9.908;2024-01-06T11:38:37;7.77;;;6.97;;
13683;SDS011;6914;53.552;9.908;2024-01-06T11:41:05;13.00;;;8.93;;
13683;SDS011;6914;53.552;9.908;2024-01-06T11:43:34;14.93;;;8.87;;
13683;SDS011;6914;53.552;9.908;2024-01-06T11:46:03;12.23;;;9.20;;
13683;SDS011;6914;53.552;9.908;2024-01-06T11:48:32;11.77;;;9.40;;
13683;SDS011;6914;53.552;9.908;2024-01-06T11:50:59;9.70;;;7.70;;
13683;SDS011;6914;53.552;9.908;2024-01-06T11:53:27;10.00;;;7.80;;
13683;SDS011;6914;53.552;9.908;2024-01-06T11:55:54;9.27;;;7.60;;
13683;SDS011;6914;53.552;9.908;2024-01-06T11:58:21;7.33;;;6.57;;
13683;SDS011;6914;53.552;9.908;2024-01-06T12:00:54;10.73;;;7.90;;
13683;SDS011;6914;53.552;9.908;2024-01-06T12:03:23;8.43;;;7.30;;
13683;SDS011;6914;53.552;9.908;2024-01-06T12:05:58;12.27;;;7.80;;
13683;SDS011;6914;53.552;9.908;2024-01-06T12:08:26;14.07;;;8.07;;
13683;SDS011;6914;53.552;9.908;2024-01-06T12:11:01;11.60;;;7.83;;
13683;SDS011;6914;53.552;9.908;2024-01-06T12:13:28;16.40;;;6.97;;
13683;SDS011;6914;53.552;9.908;2024-01-06T12:15:55;12.47;;;8.00;;
13683;SDS011;6914;53.552;9.908;2024-01-06T12:18:24;8.97;;;6.87;;
13683;SDS011;6914;53.552;9.908;2024-01-06T12:20:52;8.40;;;7.70;;
13683;SDS011;6914;53.552;9.908;2024-01-06T12:23:23;9.47;;;7.10;;
13683;SDS011;6914;53.552;9.908;2024-01-06T12:25:52;7.63;;;6.90;;
13683;SDS011;6914;53.552;9.908;2024-01-06T12:28:19;10.07;;;7.13;;
13683;SDS011;6914;53.552;9.908;2024-01-06T12:30:46;8.80;;;6.70;;
13683;SDS011;6914;53.552;9.908;2024-01-06T12:33:13;8.30;;;5.80;;
13683;SDS011;6914;53.552;9.908;2024-01-06T12:35:42;8.53;;;6.63;;
13683;SDS011;6914;53.552;9.908;2024-01-06T12:38:09;8.43;;;7.23;;
13683;SDS011;6914;53.552;9.908;2024-01-06T12:40:36;6.90;;;6.27;;
13683;SDS011;6914;53.552;9.908;2024-01-06T12:43:03;9.93;;;6.50;;
13683;SDS011;6914;53.552;9.908;2024-01-06T12:45:30;7.30;;;6.57;;
13683;SDS011;6914;53.552;9.908;2024-01-06T12:47:57;8.63;;;6.90;;
13683;SDS011;6914;53.552;9.908;2024-01-06T12:50:24;8.73;;;6.10;;
13683;SDS011;6914;53.552;9.908;2024-01-06T12:52:53;8.80;;;6.43;;
13683;SDS011;6914;53.552;9.908;2024-01-06T12:55:20;7.43;;;6.50;;
13683;SDS011;6914;53.552;9.908;2024-01-06T12:57:46;6.60;;;5.80;;
13683;SDS011;6914;53.552;9.908;2024-01-06T13:00:13;6.20;;;5.63;;
13683;SDS011;6914;53.552;9.908;2024-01-06T13:02:41;19.90;;;6.10;;
13683;SDS011;6914;53.552;9.908;2024-01-06T13:05:08;6.60;;;5.80;;
13683;SDS011;6914;53.552;9.908;2024-01-06T13:07:35;8.07;;;6.27;;
13683;SDS011;6914;53.552;9.908;2024-01-06T13:10:04;10.50;;;6.33;;
13683;SDS011;6914;53.552;9.908;2024-01-06T13:12:31;7.30;;;5.47;;
13683;SDS011;6914;53.552;9.908;2024-01-06T13:14:58;6.13;;;5.57;;
13683;SDS011;6914;53.552;9.908;2024-01-06T13:17:25;5.97;;;5.30;;
13683;SDS011;6914;53.552;9.908;2024-01-06T13:19:52;5.53;;;5.03;;
13683;SDS011;6914;53.552;9.908;2024-01-06T13:22:21;6.97;;;6.20;;
13683;SDS011;6914;53.552;9.908;2024-01-06T13:24:48;7.60;;;5.27;;
13683;SDS011;6914;53.552;9.908;2024-01-06T13:27:16;8.70;;;5.77;;
13683;SDS011;6914;53.552;9.908;2024-01-06T13:29:43;6.73;;;6.20;;
13683;SDS011;6914;53.552;9.908;2024-01-06T13:32:09;8.37;;;6.00;;
13683;SDS011;6914;53.552;9.908;2024-01-06T13:34:38;5.47;;;4.87;;
13683;SDS011;6914;53.552;9.908;2024-01-06T13:37:05;6.60;;;5.90;;
13683;SDS011;6914;53.552;9.908;2024-01-06T13:39:32;6.70;;;5.90;;
13683;SDS011;6914;53.552;9.908;2024-01-06T13:41:59;6.10;;;4.80;;
13683;SDS011;6914;53.552;9.908;2024-01-06T13:44:27;6.53;;;6.00;;
13683;SDS011;6914;53.552;9.908;2024-01-06T13:46:54;5.70;;;4.90;;
13683;SDS011;6914;53.552;9.908;2024-01-06T13:49:21;5.73;;;5.33;;
13683;SDS011;6914;53.552;9.908;2024-01-06T13:51:48;6.20;;;5.60;;
13683;SDS011;6914;53.552;9.908;2024-01-06T13:54:16;7.80;;;6.13;;
13683;SDS011;6914;53.552;9.908;2024-01-06T13:56:43;8.23;;;6.10;;
13683;SDS011;6914;53.552;9.908;2024-01-06T13:59:10;8.80;;;6.53;;
13683;SDS011;6914;53.552;9.908;2024-01-06T14:01:38;6.30;;;5.77;;
13683;SDS011;6914;53.552;9.908;2024-01-06T14:04:05;6.30;;;5.20;;
13683;SDS011;6914;53.552;9.908;2024-01-06T14:06:32;5.23;;;4.83;;
13683;SDS011;6914;53.552;9.908;2024-01-06T14:08:59;5.20;;;4.80;;
13683;SDS011;6914;53.552;9.908;2024-01-06T14:11:26;8.00;;;5.27;;
13683;SDS011;6914;53.552;9.908;2024-01-06T14:13:53;6.67;;;5.97;;
13683;SDS011;6914;53.552;9.908;2024-01-06T14:16:21;5.73;;;5.20;;
13683;SDS011;6914;53.552;9.908;2024-01-06T14:18:49;5.50;;;5.07;;
13683;SDS011;6914;53.552;9.908;2024-01-06T14:21:16;6.37;;;5.83;;
13683;SDS011;6914;53.552;9.908;2024-01-06T14:23:44;9.53;;;6.10;;
13683;SDS011;6914;53.552;9.908;2024-01-06T14:26:11;6.03;;;5.43;;
13683;SDS011;6914;53.552;9.908;2024-01-06T14:28:38;6.47;;;5.73;;
13683;SDS011;6914;53.552;9.908;2024-01-06T14:31:05;5.87;;;5.37;;
13683;SDS011;6914;53.552;9.908;2024-01-06T14:33:31;13.57;;;7.40;;
13683;SDS011;6914;53.552;9.908;2024-01-06T14:36:01;5.60;;;5.10;;
13683;SDS011;6914;53.552;9.908;2024-01-06T14:38:28;5.57;;;4.80;;
13683;SDS011;6914;53.552;9.908;2024-01-06T14:40:55;6.10;;;5.50;;
13683;SDS011;6914;53.552;9.908;2024-01-06T14:43:22;5.63;;;5.10;;
13683;SDS011;6914;53.552;9.908;2024-01-06T14:45:49;5.77;;;4.87;;
13683;SDS011;6914;53.552;9.908;2024-01-06T14:48:16;5.17;;;4.67;;
13683;SDS011;6914;53.552;9.908;2024-01-06T14:50:42;6.03;;;5.47;;
13683;SDS011;6914;53.552;9.908;2024-01-06T14:53:11;5.63;;;5.20;;
13683;SDS011;6914;53.552;9.908;2024-01-06T14:55:37;8.73;;;5.40;;
13683;SDS011;6914;53.552;9.908;2024-01-06T14:58:04;6.40;;;5.90;;